Etusivu
METAR-TAF:

METAR-TAF

Lentoasemat :

Elk Valley

Sparwood, Brittiläinen Kolumbia, Kanada

Leveyspiiri: 49-45N, Pituuspiiri: 114-53W, korkeus merenpinnasta: 1138 m

Tämänhetkinen sää

Tämä raportti tehtiin 3 tuntia ja 3 minuuttia sitten, kello 01.00 UTC
tyyntä
Lämpötila 9°C
Kosteus 53%
Ilmanpaine 1009 hPa
Näkyvyys: 32.2 km
Hajonneita pilviä 11000 ft:n korkeudessa

METAR: CWSW 170100Z 00000KT 20SM BKN110 09/M00 A2980 RMK AC7 LAST STFD OBS/NXT 171300Z SLP115 DENSITY ALT 4100FT

Aika: 22:03 (04:03 UTC)


TAF: puuttuu

Säähavainnot ja -ennusteet yli 4000 lentoasemalta (METAR- ja TAF-raportit).

Käytössä olevat sääasemat on merkitty karttaan keltaisilla ja punaisilla pisteillä.

Aseta hiiri pisteen päälle nähdäksesi sääaseman nimen.

Klikkaa sitten nähdäksesi säähavainnot ja -ennusteet.

Kartan vaihtaminen: klikkaa mustalla rastilla varustettuja vihreitä pisteitä, niin voit zoomata sisään; viivalla varustettua vihreää pistettä, niin voit zoomata ulos tai vihreitä nuolia, niin pääset viereisille kartoille.


METAR-TAF: